Lock Springs, Missouri
Current Conditions -  °F | °C
As of 8:55 PM on Friday 19 Dec 2014 (Local Time) from KGPH Reporting Station
Haze Haze  
Wind Chill: 32°   Ceiling: 1200
Heat Index: 32°   Visibility: 3mi
Dew Point: 32°   Wind: 0mph
Humidity: 100%   Direction: NA
Pressure: 30.22"   Gusts: NA
Location:  39.85°N, 93.78°W
Report Text: KGPH 200255Z AUTO 00000KT 3SM BR OVC012 00/00 A3022 RMK AO2
Loading
Personal Weather Stations






























Interactive Weather Map New forecast layout! Learn more

10-Day Weather Forecast

Advertisements
Track Severe Weather on mobile